createdAt,value
2019-01-10T00:02:05.386Z,4.17
2019-01-10T00:04:50.045Z,3.27
2019-01-10T00:07:35.317Z,4.10
2019-01-10T00:10:19.934Z,4.43
2019-01-10T00:13:05.039Z,3.83
2019-01-10T00:15:49.985Z,4.00
2019-01-10T00:18:34.549Z,3.90
2019-01-10T00:21:19.106Z,4.23
2019-01-10T00:24:03.809Z,4.10
2019-01-10T00:26:48.368Z,4.10
2019-01-10T00:29:42.124Z,4.27
2019-01-10T00:32:36.048Z,4.33
2019-01-10T00:35:20.991Z,3.80
2019-01-10T00:38:14.645Z,3.83
2019-01-10T00:40:59.640Z,4.23
2019-01-10T00:43:44.465Z,3.80
2019-01-10T00:46:29.855Z,4.00
2019-01-10T00:49:23.512Z,4.07
2019-01-10T00:52:08.617Z,4.27
2019-01-10T00:55:02.114Z,4.40
2019-01-10T00:57:46.985Z,3.80
2019-01-10T01:00:32.003Z,3.97
2019-01-10T01:03:25.976Z,4.20
2019-01-10T01:06:11.049Z,3.70
2019-01-10T01:09:05.365Z,4.03
2019-01-10T01:11:52.468Z,3.87
2019-01-10T01:14:37.429Z,3.73
2019-01-10T01:17:21.689Z,3.70
2019-01-10T01:20:06.568Z,3.53
2019-01-10T01:22:51.670Z,3.67
2019-01-10T01:25:36.597Z,4.03
2019-01-10T01:28:21.495Z,3.77
2019-01-10T01:31:06.471Z,3.90
2019-01-10T01:33:51.737Z,3.87
2019-01-10T01:36:37.349Z,3.60
2019-01-10T01:39:21.714Z,3.80
2019-01-10T01:42:06.813Z,3.60
2019-01-10T01:44:51.765Z,3.80
2019-01-10T01:47:36.962Z,3.83
2019-01-10T01:50:30.965Z,3.57
2019-01-10T01:53:16.028Z,3.70
2019-01-10T01:56:10.213Z,3.90
2019-01-10T01:59:03.971Z,3.50
2019-01-10T02:01:57.902Z,4.00
2019-01-10T02:04:42.949Z,4.40
2019-01-10T02:07:36.914Z,4.20
2019-01-10T02:10:23.064Z,3.77
2019-01-10T02:13:16.333Z,4.00
2019-01-10T02:15:54.577Z,4.10
2019-01-10T02:18:48.441Z,3.93
2019-01-10T02:21:33.397Z,4.13
2019-01-10T02:24:17.865Z,4.30
2019-01-10T02:27:02.288Z,3.60
2019-01-10T02:29:47.093Z,3.93
2019-01-10T02:32:31.909Z,3.57
2019-01-10T02:35:16.881Z,4.00
2019-01-10T02:38:01.852Z,4.27
2019-01-10T02:40:46.941Z,4.00
2019-01-10T02:43:31.665Z,4.10
2019-01-10T02:46:16.308Z,4.23
2019-01-10T02:49:01.339Z,4.00
2019-01-10T02:51:46.590Z,4.87
2019-01-10T02:54:39.954Z,4.57
2019-01-10T02:57:24.577Z,4.27
2019-01-10T03:00:10.329Z,5.50
2019-01-10T03:03:03.886Z,4.97
2019-01-10T03:05:48.675Z,4.33
2019-01-10T03:08:33.649Z,4.60
2019-01-10T03:11:27.674Z,4.97
2019-01-10T03:14:21.526Z,4.70
2019-01-10T03:17:06.306Z,4.07
2019-01-10T03:19:51.382Z,4.43
2019-01-10T03:22:45.908Z,4.50
2019-01-10T03:25:30.926Z,4.10
2019-01-10T03:28:15.875Z,4.50
2019-01-10T03:31:00.338Z,4.80
2019-01-10T03:33:45.347Z,4.67
2019-01-10T03:36:30.262Z,4.53
2019-01-10T03:39:15.361Z,4.37
2019-01-10T03:42:00.454Z,4.80
2019-01-10T03:44:45.195Z,4.10
2019-01-10T03:47:29.737Z,4.40
2019-01-10T03:50:14.513Z,4.57
2019-01-10T03:52:59.601Z,4.57
2019-01-10T03:55:43.940Z,4.63
2019-01-10T03:58:31.401Z,4.73
2019-01-10T04:01:25.359Z,4.57
2019-01-10T04:04:19.115Z,4.70
2019-01-10T04:07:04.093Z,5.00
2019-01-10T04:09:57.926Z,4.77
2019-01-10T04:12:42.674Z,4.43
2019-01-10T04:15:27.875Z,5.40
2019-01-10T04:18:22.129Z,4.97
2019-01-10T04:21:17.495Z,4.37
2019-01-10T04:24:02.004Z,4.90
2019-01-10T04:26:47.013Z,4.93
2019-01-10T04:29:32.326Z,6.10
2019-01-10T04:32:25.890Z,4.90
2019-01-10T04:35:10.660Z,4.70
2019-01-10T04:37:55.764Z,4.87
2019-01-10T04:40:49.473Z,4.80
2019-01-10T04:43:34.294Z,5.20
2019-01-10T04:46:19.489Z,5.10
2019-01-10T04:49:13.249Z,4.93
2019-01-10T04:51:58.264Z,5.50
2019-01-10T04:54:55.979Z,5.40
2019-01-10T04:57:38.516Z,4.83
2019-01-10T05:00:23.291Z,5.23
2019-01-10T05:03:08.793Z,5.27
2019-01-10T05:06:02.177Z,5.20
2019-01-10T05:08:46.885Z,5.60
2019-01-10T05:11:31.496Z,5.30
2019-01-10T05:14:17.019Z,5.53
2019-01-10T05:17:10.962Z,5.80
2019-01-10T05:20:04.813Z,5.63
2019-01-10T05:22:49.753Z,5.53
2019-01-10T05:25:44.167Z,5.70
2019-01-10T05:28:37.522Z,6.00
2019-01-10T05:31:22.284Z,5.93
2019-01-10T05:34:07.113Z,5.87
2019-01-10T05:36:52.055Z,6.13
2019-01-10T05:39:36.652Z,5.80
2019-01-10T05:42:21.493Z,6.07
2019-01-10T05:45:06.085Z,5.60
2019-01-10T05:47:51.172Z,5.67
2019-01-10T05:50:36.293Z,5.50
2019-01-10T05:53:30.047Z,6.17
2019-01-10T05:56:15.889Z,5.43
2019-01-10T05:59:01.061Z,5.40
2019-01-10T06:01:45.965Z,6.43
2019-01-10T06:04:31.377Z,5.40
2019-01-10T06:07:24.961Z,5.43
2019-01-10T06:10:09.444Z,6.17
2019-01-10T06:12:54.343Z,5.57
2019-01-10T06:15:39.431Z,5.83
2019-01-10T06:18:24.701Z,6.27
2019-01-10T06:21:18.281Z,5.67
2019-01-10T06:24:03.049Z,5.60
2019-01-10T06:26:48.310Z,6.30
2019-01-10T06:29:42.246Z,5.90
2019-01-10T06:32:36.165Z,6.00
2019-01-10T06:35:21.068Z,6.17
2019-01-10T06:38:05.786Z,6.30
2019-01-10T06:40:50.669Z,5.57
2019-01-10T06:43:35.097Z,5.97
2019-01-10T06:46:20.621Z,5.90
2019-01-10T06:49:14.850Z,8.03
2019-01-10T06:52:08.793Z,6.20
2019-01-10T06:54:56.666Z,6.50
2019-01-10T06:57:49.126Z,6.20
2019-01-10T07:00:34.429Z,5.67
2019-01-10T07:03:28.401Z,5.97
2019-01-10T07:06:22.658Z,6.20
2019-01-10T07:09:16.397Z,6.43
2019-01-10T07:12:10.654Z,7.57
2019-01-10T07:15:04.709Z,7.10
2019-01-10T07:17:58.939Z,6.70
2019-01-10T07:20:52.754Z,6.00
2019-01-10T07:23:46.982Z,7.13
2019-01-10T07:26:40.798Z,6.10
2019-01-10T07:29:35.790Z,6.70
2019-01-10T07:32:20.712Z,6.60
2019-01-10T07:35:05.414Z,6.50
2019-01-10T07:37:50.937Z,7.10
2019-01-10T07:40:36.565Z,6.87
2019-01-10T07:43:21.587Z,7.10
2019-01-10T07:46:15.649Z,6.90
2019-01-10T07:49:00.877Z,6.93
2019-01-10T07:51:55.101Z,7.10
2019-01-10T07:54:48.514Z,6.73
2019-01-10T07:57:33.056Z,6.87
2019-01-10T08:00:17.738Z,6.70
2019-01-10T08:03:02.753Z,7.00
2019-01-10T08:05:47.336Z,7.27
2019-01-10T08:08:32.221Z,7.40
2019-01-10T08:11:19.475Z,7.10
2019-01-10T08:14:03.417Z,6.30
2019-01-10T08:16:48.426Z,7.13
2019-01-10T08:19:34.265Z,8.90
2019-01-10T08:22:27.490Z,7.57
2019-01-10T08:25:06.581Z,7.90
2019-01-10T08:28:00.787Z,6.60
2019-01-10T08:30:55.101Z,6.70
2019-01-10T08:33:39.998Z,6.70
2019-01-10T08:36:32.311Z,6.77
2019-01-10T08:39:19.758Z,6.50
2019-01-10T08:42:05.029Z,7.13
2019-01-10T08:44:58.721Z,7.03
2019-01-10T08:47:53.163Z,7.60
2019-01-10T08:50:47.250Z,7.63
2019-01-10T08:53:40.860Z,6.77
2019-01-10T08:56:25.774Z,7.40
2019-01-10T08:59:19.646Z,6.60
2019-01-10T09:02:05.085Z,6.60
2019-01-10T09:04:58.474Z,7.33
2019-01-10T09:07:44.311Z,8.73
2019-01-10T09:10:29.329Z,6.60
2019-01-10T09:13:14.857Z,7.30
2019-01-10T09:16:15.189Z,7.40
2019-01-10T09:19:10.388Z,7.33
2019-01-10T09:22:04.317Z,5.93
2019-01-10T09:24:49.244Z,6.47
2019-01-10T09:27:34.737Z,6.47
2019-01-10T09:30:19.181Z,7.27
2019-01-10T09:33:12.913Z,6.77
2019-01-10T09:35:57.841Z,6.33
2019-01-10T09:38:52.010Z,6.80
2019-01-10T09:41:45.782Z,6.43
2019-01-10T09:44:30.929Z,6.23
2019-01-10T09:47:24.545Z,6.60
2019-01-10T09:50:09.550Z,6.80
2019-01-10T09:53:03.519Z,5.67
2019-01-10T09:55:48.745Z,6.93
2019-01-10T09:58:42.274Z,6.07
2019-01-10T10:01:27.357Z,6.40
2019-01-10T10:04:21.878Z,5.93
2019-01-10T10:07:15.390Z,6.47
2019-01-10T10:10:00.293Z,6.17
2019-01-10T10:12:45.166Z,6.13
2019-01-10T10:15:39.587Z,6.10
2019-01-10T10:18:33.134Z,5.60
2019-01-10T10:21:17.853Z,6.33
2019-01-10T10:24:02.854Z,6.33
2019-01-10T10:26:48.057Z,9.17
2019-01-10T10:29:41.682Z,5.87
2019-01-10T10:32:26.890Z,6.07
2019-01-10T10:35:20.565Z,6.70
2019-01-10T10:38:05.173Z,7.43
2019-01-10T10:40:50.581Z,5.87
2019-01-10T10:43:45.004Z,6.30
2019-01-10T10:46:29.843Z,6.03
2019-01-10T10:49:14.441Z,6.10
2019-01-10T10:52:08.034Z,6.37
2019-01-10T10:54:52.684Z,6.40
2019-01-10T10:57:37.809Z,5.43
2019-01-10T11:00:32.136Z,5.60
2019-01-10T11:03:28.558Z,6.13
2019-01-10T11:06:13.998Z,6.50
2019-01-10T11:09:09.328Z,5.70
2019-01-10T11:12:03.391Z,6.67
2019-01-10T11:14:57.446Z,6.07
2019-01-10T11:17:51.600Z,5.40
2019-01-10T11:20:51.325Z,5.80
2019-01-10T11:23:36.481Z,5.90
2019-01-10T11:26:30.578Z,5.47
2019-01-10T11:29:24.477Z,5.67
2019-01-10T11:32:13.263Z,5.70
2019-01-10T11:35:05.202Z,6.47
2019-01-10T11:37:59.214Z,6.47
2019-01-10T11:40:53.186Z,5.73
2019-01-10T11:43:47.342Z,6.83
2019-01-10T11:46:41.599Z,6.20
2019-01-10T11:49:35.362Z,5.60
2019-01-10T11:52:20.505Z,6.00
2019-01-10T11:55:14.217Z,5.60
2019-01-10T11:57:59.369Z,5.87
2019-01-10T12:00:53.049Z,5.70
2019-01-10T12:03:38.590Z,6.40
2019-01-10T12:06:23.917Z,5.40
2019-01-10T12:09:09.145Z,5.30
2019-01-10T12:11:54.410Z,5.10
2019-01-10T12:14:48.316Z,5.23
2019-01-10T12:17:42.395Z,5.47
2019-01-10T12:20:36.301Z,5.20
2019-01-10T12:23:30.130Z,5.37
2019-01-10T12:26:15.431Z,4.77
2019-01-10T12:29:09.488Z,5.53
2019-01-10T12:32:02.932Z,6.13
2019-01-10T12:34:47.973Z,5.77
2019-01-10T12:37:33.863Z,5.63
2019-01-10T12:40:18.510Z,5.43
2019-01-10T12:43:03.284Z,5.70
2019-01-10T12:45:47.862Z,5.43
2019-01-10T12:48:32.874Z,6.17
2019-01-10T12:51:18.105Z,5.00
2019-01-10T12:54:03.245Z,4.90
2019-01-10T12:56:57.997Z,4.73
2019-01-10T12:59:42.973Z,4.70
2019-01-10T13:02:27.637Z,4.77
2019-01-10T13:05:12.557Z,4.70
2019-01-10T13:08:03.490Z,5.90
2019-01-10T13:10:44.045Z,5.03
2019-01-10T13:13:29.493Z,5.10
2019-01-10T13:16:23.291Z,4.67
2019-01-10T13:19:08.285Z,4.83
2019-01-10T13:22:02.530Z,4.90
2019-01-10T13:24:56.438Z,4.40
2019-01-10T13:27:49.397Z,4.90
2019-01-10T13:30:43.542Z,4.20
2019-01-10T13:33:28.201Z,4.87
2019-01-10T13:36:22.530Z,4.77
2019-01-10T13:39:07.514Z,4.83
2019-01-10T13:41:52.542Z,6.37
2019-01-10T13:44:37.437Z,6.20
2019-01-10T13:47:22.831Z,5.10
2019-01-10T13:50:16.778Z,5.30
2019-01-10T13:53:11.781Z,5.70
2019-01-10T13:55:57.101Z,5.17
2019-01-10T13:58:41.818Z,5.10
2019-01-10T14:01:26.815Z,5.50
2019-01-10T14:04:11.697Z,5.50
2019-01-10T14:07:06.045Z,4.90
2019-01-10T14:10:00.177Z,5.93
2019-01-10T14:12:53.994Z,5.57
2019-01-10T14:15:47.728Z,5.50
2019-01-10T14:18:33.209Z,5.37
2019-01-10T14:21:26.797Z,5.40
2019-01-10T14:24:11.431Z,5.13
2019-01-10T14:26:56.709Z,5.13
2019-01-10T14:29:50.530Z,5.63
2019-01-10T14:32:35.289Z,5.80
2019-01-10T14:35:19.977Z,5.10
2019-01-10T14:38:05.074Z,6.13
2019-01-10T14:40:59.152Z,5.13
2019-01-10T14:43:52.654Z,5.17
2019-01-10T14:46:37.493Z,5.00
2019-01-10T14:49:22.949Z,4.80
2019-01-10T14:52:16.458Z,6.30
2019-01-10T14:55:01.521Z,5.07
2019-01-10T14:57:55.278Z,5.03
2019-01-10T15:00:40.042Z,5.27
2019-01-10T15:03:26.025Z,5.03
2019-01-10T15:06:10.534Z,5.23
2019-01-10T15:09:04.509Z,5.73
2019-01-10T15:11:50.097Z,5.80
2019-01-10T15:14:35.198Z,5.10
2019-01-10T15:17:19.741Z,4.70
2019-01-10T15:20:04.670Z,4.90
2019-01-10T15:22:49.175Z,4.27
2019-01-10T15:25:34.610Z,5.10
2019-01-10T15:28:28.709Z,5.13
2019-01-10T15:31:22.401Z,4.20
2019-01-10T15:34:07.508Z,3.90
2019-01-10T15:37:02.429Z,3.93
2019-01-10T15:40:15.553Z,3.87
2019-01-10T15:43:00.324Z,4.23
2019-01-10T15:45:45.569Z,4.13
2019-01-10T15:48:39.634Z,3.97
2019-01-10T15:51:33.766Z,3.73
2019-01-10T15:54:28.005Z,3.23
2019-01-10T15:57:22.030Z,2.90
2019-01-10T16:00:15.933Z,3.60
2019-01-10T16:03:09.834Z,3.73
2019-01-10T16:05:54.593Z,3.53
2019-01-10T16:08:40.110Z,3.60
2019-01-10T16:11:24.812Z,2.93
2019-01-10T16:14:19.049Z,3.37
2019-01-10T16:17:04.250Z,3.20
2019-01-10T16:19:48.808Z,3.03
2019-01-10T16:22:33.473Z,4.00
2019-01-10T16:25:19.550Z,4.17
2019-01-10T16:28:13.577Z,4.13
2019-01-10T16:31:07.342Z,3.37
2019-01-10T16:33:51.765Z,7.27
2019-01-10T16:36:36.499Z,5.03
2019-01-10T16:39:21.844Z,5.10
2019-01-10T16:42:06.805Z,4.33
2019-01-10T16:45:00.914Z,3.47
2019-01-10T16:47:54.732Z,3.53
2019-01-10T16:50:39.736Z,7.50
2019-01-10T16:53:33.570Z,4.00
2019-01-10T16:56:17.877Z,3.37
2019-01-10T16:59:03.278Z,3.70
2019-01-10T17:01:57.394Z,4.87
2019-01-10T17:04:51.573Z,5.23
2019-01-10T17:07:46.126Z,4.83
2019-01-10T17:10:30.909Z,4.80
2019-01-10T17:13:15.635Z,5.50
2019-01-10T17:16:00.817Z,5.83
2019-01-10T17:18:45.467Z,4.90
2019-01-10T17:21:30.393Z,4.43
2019-01-10T17:24:15.301Z,4.27
2019-01-10T17:27:10.281Z,4.90
2019-01-10T17:30:04.088Z,5.00
2019-01-10T17:32:57.953Z,6.60
2019-01-10T17:35:42.689Z,5.50
2019-01-10T17:38:27.655Z,7.30
2019-01-10T17:41:12.678Z,6.10
2019-01-10T17:44:06.994Z,6.23
2019-01-10T17:47:00.677Z,4.20
2019-01-10T17:49:54.807Z,4.60
2019-01-10T17:52:48.973Z,4.30
2019-01-10T17:55:43.150Z,3.87
2019-01-10T17:58:37.081Z,3.70
2019-01-10T18:01:35.793Z,3.90
2019-01-10T18:04:20.673Z,4.77
2019-01-10T18:07:06.150Z,4.03
2019-01-10T18:10:01.333Z,5.13
2019-01-10T18:12:46.677Z,4.67
2019-01-10T18:15:40.258Z,4.83
2019-01-10T18:18:25.906Z,4.83
2019-01-10T18:21:14.970Z,4.83
2019-01-10T18:23:58.114Z,3.50
2019-01-10T18:26:55.433Z,5.37
2019-01-10T18:29:49.446Z,3.97
2019-01-10T18:32:43.446Z,4.63
2019-01-10T18:35:37.286Z,4.57
2019-01-10T18:38:22.141Z,4.73
2019-01-10T18:45:05.534Z,4.33
2019-01-10T18:47:44.575Z,3.83
2019-01-10T18:50:29.789Z,3.90
2019-01-10T18:53:14.971Z,4.00
2019-01-10T18:56:00.541Z,3.80
2019-01-10T18:58:45.318Z,4.00
2019-01-10T19:01:30.132Z,4.13
2019-01-10T19:04:15.551Z,4.03
2019-01-10T19:07:00.277Z,3.70
2019-01-10T19:09:44.991Z,3.73
2019-01-10T19:12:30.245Z,4.33
2019-01-10T19:15:15.001Z,4.10
2019-01-10T19:18:03.338Z,4.20
2019-01-10T19:20:46.692Z,4.30
2019-01-10T19:23:40.406Z,4.80
2019-01-10T19:26:25.613Z,4.40
2019-01-10T19:29:19.114Z,5.10
2019-01-10T19:32:03.981Z,5.00
2019-01-10T19:34:49.413Z,5.43
2019-01-10T19:37:42.930Z,4.20
2019-01-10T19:40:27.373Z,5.60
2019-01-10T19:43:12.494Z,10.00
2019-01-10T19:45:57.921Z,12.73
2019-01-10T19:48:43.550Z,7.47
2019-01-10T19:51:29.046Z,7.73
2019-01-10T19:54:22.886Z,7.00
2019-01-10T19:57:16.762Z,5.87
2019-01-10T20:00:02.081Z,6.53
2019-01-10T20:02:47.423Z,5.80
2019-01-10T20:05:32.185Z,5.30
2019-01-10T20:08:17.504Z,5.60
2019-01-10T20:11:03.214Z,5.20
2019-01-10T20:13:48.229Z,4.70
2019-01-10T20:16:32.681Z,5.10
2019-01-10T20:19:17.745Z,4.97
2019-01-10T20:22:03.013Z,4.63
2019-01-10T20:24:48.232Z,5.53
2019-01-10T20:27:42.222Z,10.03
2019-01-10T20:30:35.675Z,7.40
2019-01-10T20:33:20.235Z,5.23
2019-01-10T20:36:05.830Z,4.93
2019-01-10T20:38:59.594Z,4.80
2019-01-10T20:41:44.173Z,4.70
2019-01-10T20:44:29.051Z,5.17
2019-01-10T20:47:14.956Z,4.87
2019-01-10T20:50:00.035Z,5.10
2019-01-10T20:52:44.973Z,4.73
2019-01-10T20:55:30.555Z,5.30
2019-01-10T20:58:24.281Z,5.60
2019-01-10T21:01:09.230Z,5.37
2019-01-10T21:04:03.046Z,5.03
2019-01-10T21:06:48.202Z,4.70
2019-01-10T21:09:42.071Z,5.20
2019-01-10T21:12:27.161Z,4.73
2019-01-10T21:15:21.349Z,4.67
2019-01-10T21:18:15.433Z,5.00
2019-01-10T21:21:09.569Z,4.40
2019-01-10T21:24:04.588Z,4.90
2019-01-10T21:26:49.409Z,5.10
2019-01-10T21:29:34.521Z,4.90
2019-01-10T21:32:19.621Z,4.70
2019-01-10T21:35:14.147Z,4.83
2019-01-10T21:38:08.194Z,4.77
2019-01-10T21:41:01.959Z,5.40
2019-01-10T21:43:55.793Z,4.67
2019-01-10T21:46:41.069Z,4.70
2019-01-10T21:49:41.049Z,4.70
2019-01-10T21:52:38.163Z,4.97
2019-01-10T21:55:22.820Z,5.07
2019-01-10T21:58:16.574Z,4.70
2019-01-10T22:01:11.230Z,5.70
2019-01-10T22:04:05.081Z,6.20
2019-01-10T22:06:49.832Z,6.77
2019-01-10T22:09:35.210Z,6.60
2019-01-10T22:12:29.325Z,6.30
2019-01-10T22:15:23.830Z,6.03
2019-01-10T22:18:09.299Z,6.73
2019-01-10T22:20:54.282Z,5.70
2019-01-10T22:23:39.269Z,5.90
2019-01-10T22:26:33.358Z,6.17
2019-01-10T22:29:27.129Z,5.53
2019-01-10T22:32:11.560Z,5.07
2019-01-10T22:34:56.944Z,6.20
2019-01-10T22:37:50.715Z,5.57
2019-01-10T22:40:35.244Z,5.43
2019-01-10T22:43:20.637Z,5.70
2019-01-10T22:46:14.702Z,6.50
2019-01-10T22:49:08.286Z,5.63
2019-01-10T22:51:53.093Z,5.40
2019-01-10T22:54:37.966Z,6.03
2019-01-10T22:57:23.009Z,5.27
2019-01-10T23:00:08.893Z,5.50
2019-01-10T23:02:55.622Z,5.93
2019-01-10T23:05:41.405Z,6.33
2019-01-10T23:08:26.333Z,6.60
2019-01-10T23:11:12.870Z,5.73
2019-01-10T23:13:57.749Z,5.77
2019-01-10T23:16:42.361Z,5.80
2019-01-10T23:19:27.314Z,5.60
2019-01-10T23:22:12.513Z,6.33
2019-01-10T23:24:57.317Z,5.83
2019-01-10T23:27:43.217Z,5.93
2019-01-10T23:30:28.341Z,5.73
2019-01-10T23:33:13.534Z,5.37
2019-01-10T23:35:58.480Z,5.80
2019-01-10T23:42:02.274Z,5.40
2019-01-10T23:44:47.858Z,5.87
2019-01-10T23:47:41.983Z,5.80
2019-01-10T23:50:35.830Z,5.73
2019-01-10T23:53:29.557Z,5.70
2019-01-10T23:56:14.544Z,6.37
2019-01-10T23:58:59.314Z,6.07
